Terminal Aerodrome Forecast
Issued by NWS

Home | Current Version | Previous Version | Text Only | Print | Product List | Glossary On
Versions: 1 2 3 4 5 6 7 8 9 10 11 12 13 14 15 16 17 18 19 20 21 22 23 24 25 26
013
FTUS46 KPDT 111140
TAFYKM
TAF
KYKM 111140Z 1112/1212 24003KT 6SM BR SCT002 OVC007
      TEMPO 1112/1116 3SM BR BKN002 OVC005
     FM111600 16003KT 3SM BR VCSH BKN006 OVC010
     FM112000 24005KT 6SM BR SCT006 BKN010
     FM120000 24006KT 6SM BR SCT010 BKN150
     FM121000 27005KT 3SM BR SCT005 BKN150=

USA.gov is the U.S. government's official web portal to all federal, state and local government web resources and services.